Main page


Airports :

Leeming, England

RAF Leeming

latitude: 54-18N, longitude: 001-32W, elevation: 40 m

Current weather observation

The report was made 53 minutes ago, at 16:50 UTC
Wind 5 kt from the South
Temperature 7°C
Humidity 66%
Pressure 1031 hPa
Visibility 10 km or more
Few clouds at a height of 3500 ft

METAR: EGXE 201650Z 19005KT 9999 FEW035 07/01 Q1031 BLU NOSIG

Time: 17:43 (17:43 UTC)


The report was made 3 hours and 53 minutes ago, at 13:50 UTC
Forecast valid from 20 at 15 UTC to 20 at 19 UTC
Wind 8 kt from the North
Visibility 10 km or more
Broken clouds at a height of 3000 ft

TAF: EGXE 201350Z 2015/2019 35008KT 9999 BKN030

Weather observations and forecasts of more than 4000 airports (METAR and TAF reports).

The available stations are represented by yellow and red dots on the map.

Hover mouse over dot to see the name of the station.

Then click to see weather observations and forecasts.

To change the map : click on the green buttons with a black cross to zoom in, on the green button with a dash to zoom out, or on the green arrows for adjacent maps.